Погода Сафина 2 недели

Сафи, Марокко

21 февраля-05 марта
  • 21февраля
    Сегодня
    +12°
    +26°
    Ясно и безоблачно
    ВремяПогодаТемператураВлажностьДавлениеВетер, м/сВероятность осадков
    01:00Ясно и безоблачно+16°C93 %761 мм4.3 м/с2 %
    04:00Ясно и безоблачно+15°C93 %760 мм3.0 м/с2 %
    07:00Ясно и безоблачно+15°C92 %760 мм4.3 м/с2 %
    10:00Ясно и безоблачно+16°C87 %762 мм1.9 м/с2 %
    13:00Ясно и безоблачно+23°C71 %762 мм3.0 м/с2 %
    16:00Ясно и безоблачно+25°C60 %761 мм4.1 м/с2 %
    19:00Ясно и безоблачно+22°C62 %761 мм3.4 м/с2 %
    22:00Ясно и безоблачно+19°C72 %762 мм4.3 м/с2 %
  • 22февраля
    Четверг
    +15°
    +23°
    Практически безоблачно
    ВремяПогодаТемператураВлажностьДавлениеВетер, м/сВероятность осадков
    01:00Ясно и безоблачно+16°C87 %762 мм3.8 м/с2 %
    04:00Практически безоблачно+14°C95 %760 мм3.6 м/с2 %
    07:00Облачно с прояснениями+13°C98 %760 мм3.6 м/с2 %
    10:00Небольшая облачность+14°C89 %762 мм2.0 м/с2 %
    13:00Практически безоблачно+22°C56 %762 мм3.2 м/с2 %
    16:00Практически безоблачно+22°C71 %760 мм3.9 м/с2 %
    19:00Ясно и безоблачно+19°C82 %760 мм3.2 м/с2 %
    22:00Ясно и безоблачно+17°C89 %761 мм3.3 м/с2 %
  • 23февраля
    Пятница
    +11°
    +20°
    Пасмурно, ливень
    ВремяПогодаТемператураВлажностьДавлениеВетер, м/сВероятность осадков
    01:00Небольшая облачность+16°C93 %760 мм2.2 м/с2 %
    04:00Облачно с прояснениями+16°C95 %759 мм1.1 м/с4 %
    07:00Пасмурно, сплошная облачность+15°C99 %759 мм2.5 м/с19 %
    10:00Пасмурно, ливень+17°C92 %760 мм1.9 м/с63 %
    13:00Пасмурно, ливень+19°C81 %760 мм4.5 м/с59 %
    16:00Пасмурно, сплошная облачность+19°C66 %759 мм4.8 м/с17 %
    19:00Облачно с прояснениями+18°C62 %759 мм4.7 м/с2 %
    22:00Небольшая облачность+16°C59 %761 мм6.4 м/с1 %
  • 24февраля
    Суббота
    +11°
    +20°
    Облачно с прояснениями
    ВремяПогодаТемператураВлажностьДавлениеВетер, м/сВероятность осадков
    01:00Облачно с прояснениями+14°C72 %761 мм3.3 м/с2 %
    04:00Облачно с прояснениями+12°C77 %760 мм3.1 м/с1 %
    07:00Облачно с прояснениями+12°C81 %760 мм3.5 м/с2 %
    10:00Небольшая облачность+13°C72 %761 мм2.5 м/с4 %
    13:00Облачно с прояснениями+19°C55 %761 мм4.3 м/с5 %
    16:00Облачно с прояснениями+20°C61 %760 мм4.7 м/с2 %
    19:00Ясно и безоблачно+18°C65 %760 мм4.6 м/с2 %
    22:00Ясно и безоблачно+16°C72 %761 мм6.2 м/с2 %
  • 25февраля
    Воскресенье
    +10°
    +22°
    Ясно и безоблачно
    ВремяПогодаТемператураВлажностьДавлениеВетер, м/сВероятность осадков
    01:00Ясно и безоблачно+14°C77 %761 мм5.4 м/с2 %
    04:00Практически безоблачно+13°C83 %760 мм5.2 м/с2 %
    07:00Практически безоблачно+11°C87 %760 мм5.0 м/с2 %
    10:00Практически безоблачно+13°C75 %761 мм2.7 м/с2 %
    13:00Ясно и безоблачно+19°C49 %760 мм3.3 м/с2 %
    16:00Ясно и безоблачно+22°C53 %758 мм3.6 м/с2 %
    19:00Ясно и безоблачно+18°C63 %758 мм3.7 м/с2 %
    22:00Ясно и безоблачно+15°C78 %758 мм3.3 м/с2 %
Мы используем cookies
Соглашаюсь